sensor_id;sensor_type;location;lat;lon;timestamp;P1;durP1;ratioP1;P2;durP2;ratioP2
4517;SDS011;2271;49.464;11.070;2023-07-29T00:01:15;1.83;;;1.60;;
4517;SDS011;2271;49.464;11.070;2023-07-29T00:03:41;1.90;;;1.63;;
4517;SDS011;2271;49.464;11.070;2023-07-29T00:06:06;3.95;;;2.55;;
4517;SDS011;2271;49.464;11.070;2023-07-29T00:08:32;2.40;;;2.20;;
4517;SDS011;2271;49.464;11.070;2023-07-29T00:10:58;6.50;;;2.72;;
4517;SDS011;2271;49.464;11.070;2023-07-29T00:13:23;4.30;;;2.50;;
4517;SDS011;2271;49.464;11.070;2023-07-29T00:15:49;3.08;;;2.15;;
4517;SDS011;2271;49.464;11.070;2023-07-29T00:18:14;3.17;;;2.25;;
4517;SDS011;2271;49.464;11.070;2023-07-29T00:20:40;2.70;;;2.38;;
4517;SDS011;2271;49.464;11.070;2023-07-29T00:23:05;4.25;;;2.60;;
4517;SDS011;2271;49.464;11.070;2023-07-29T00:25:31;2.13;;;1.92;;
4517;SDS011;2271;49.464;11.070;2023-07-29T00:27:57;3.67;;;2.53;;
4517;SDS011;2271;49.464;11.070;2023-07-29T00:30:23;4.38;;;2.60;;
4517;SDS011;2271;49.464;11.070;2023-07-29T00:32:49;4.43;;;2.25;;
4517;SDS011;2271;49.464;11.070;2023-07-29T00:35:14;2.70;;;2.50;;
4517;SDS011;2271;49.464;11.070;2023-07-29T00:37:40;2.47;;;2.28;;
4517;SDS011;2271;49.464;11.070;2023-07-29T00:40:08;2.97;;;2.22;;
4517;SDS011;2271;49.464;11.070;2023-07-29T00:42:39;3.13;;;2.42;;
4517;SDS011;2271;49.464;11.070;2023-07-29T00:45:05;3.00;;;2.63;;
4517;SDS011;2271;49.464;11.070;2023-07-29T00:47:32;2.83;;;2.50;;
4517;SDS011;2271;49.464;11.070;2023-07-29T00:49:58;3.20;;;2.00;;
4517;SDS011;2271;49.464;11.070;2023-07-29T00:52:24;2.45;;;2.25;;
4517;SDS011;2271;49.464;11.070;2023-07-29T00:54:49;2.83;;;2.30;;
4517;SDS011;2271;49.464;11.070;2023-07-29T00:57:15;2.50;;;2.25;;
4517;SDS011;2271;49.464;11.070;2023-07-29T00:59:42;4.22;;;2.60;;
4517;SDS011;2271;49.464;11.070;2023-07-29T01:02:08;4.50;;;2.47;;
4517;SDS011;2271;49.464;11.070;2023-07-29T01:04:34;2.55;;;2.25;;
4517;SDS011;2271;49.464;11.070;2023-07-29T01:16:02;3.03;;;2.35;;
4517;SDS011;2271;49.464;11.070;2023-07-29T01:18:23;3.58;;;2.53;;
4517;SDS011;2271;49.464;11.070;2023-07-29T01:20:58;3.10;;;2.80;;
4517;SDS011;2271;49.464;11.070;2023-07-29T01:23:31;2.35;;;2.15;;
4517;SDS011;2271;49.464;11.070;2023-07-29T01:25:58;2.47;;;2.17;;
4517;SDS011;2271;49.464;11.070;2023-07-29T01:28:24;2.95;;;2.30;;
4517;SDS011;2271;49.464;11.070;2023-07-29T01:30:51;2.40;;;2.20;;
4517;SDS011;2271;49.464;11.070;2023-07-29T01:33:29;2.47;;;2.28;;
4517;SDS011;2271;49.464;11.070;2023-07-29T01:36:03;3.33;;;2.38;;
4517;SDS011;2271;49.464;11.070;2023-07-29T01:38:38;2.55;;;2.20;;
4517;SDS011;2271;49.464;11.070;2023-07-29T01:41:06;2.33;;;2.10;;
4517;SDS011;2271;49.464;11.070;2023-07-29T01:43:34;4.00;;;2.40;;
4517;SDS011;2271;49.464;11.070;2023-07-29T01:46:06;2.65;;;2.45;;
4517;SDS011;2271;49.464;11.070;2023-07-29T01:48:32;4.00;;;2.17;;
4517;SDS011;2271;49.464;11.070;2023-07-29T01:50:57;3.60;;;2.78;;
4517;SDS011;2271;49.464;11.070;2023-07-29T01:53:23;2.63;;;2.35;;
4517;SDS011;2271;49.464;11.070;2023-07-29T01:55:49;2.50;;;2.30;;
4517;SDS011;2271;49.464;11.070;2023-07-29T01:58:14;3.92;;;2.60;;
4517;SDS011;2271;49.464;11.070;2023-07-29T02:00:40;3.95;;;2.65;;
4517;SDS011;2271;49.464;11.070;2023-07-29T02:03:06;4.22;;;2.42;;
4517;SDS011;2271;49.464;11.070;2023-07-29T02:05:31;3.75;;;2.47;;
4517;SDS011;2271;49.464;11.070;2023-07-29T02:07:57;5.38;;;3.08;;
4517;SDS011;2271;49.464;11.070;2023-07-29T02:10:23;5.57;;;3.60;;
4517;SDS011;2271;49.464;11.070;2023-07-29T02:12:48;4.65;;;3.17;;
4517;SDS011;2271;49.464;11.070;2023-07-29T02:15:14;6.25;;;3.30;;
4517;SDS011;2271;49.464;11.070;2023-07-29T02:17:41;3.47;;;2.90;;
4517;SDS011;2271;49.464;11.070;2023-07-29T02:20:07;3.22;;;2.75;;
4517;SDS011;2271;49.464;11.070;2023-07-29T02:22:33;2.72;;;2.53;;
4517;SDS011;2271;49.464;11.070;2023-07-29T02:24:59;3.03;;;2.75;;
4517;SDS011;2271;49.464;11.070;2023-07-29T02:27:25;5.43;;;3.13;;
4517;SDS011;2271;49.464;11.070;2023-07-29T02:29:52;3.83;;;2.78;;
4517;SDS011;2271;49.464;11.070;2023-07-29T02:32:18;4.15;;;3.25;;
4517;SDS011;2271;49.464;11.070;2023-07-29T02:34:44;3.88;;;3.05;;
4517;SDS011;2271;49.464;11.070;2023-07-29T02:37:09;3.05;;;2.75;;
4517;SDS011;2271;49.464;11.070;2023-07-29T02:39:36;2.85;;;2.58;;
4517;SDS011;2271;49.464;11.070;2023-07-29T02:42:02;3.30;;;3.00;;
4517;SDS011;2271;49.464;11.070;2023-07-29T02:44:27;4.93;;;3.60;;
4517;SDS011;2271;49.464;11.070;2023-07-29T02:46:53;4.30;;;3.35;;
4517;SDS011;2271;49.464;11.070;2023-07-29T02:49:21;3.67;;;3.22;;
4517;SDS011;2271;49.464;11.070;2023-07-29T02:51:49;3.70;;;3.28;;
4517;SDS011;2271;49.464;11.070;2023-07-29T02:54:15;3.80;;;2.67;;
4517;SDS011;2271;49.464;11.070;2023-07-29T02:56:40;3.20;;;2.80;;
4517;SDS011;2271;49.464;11.070;2023-07-29T02:59:06;3.53;;;3.15;;
4517;SDS011;2271;49.464;11.070;2023-07-29T03:01:32;3.15;;;2.85;;
4517;SDS011;2271;49.464;11.070;2023-07-29T03:03:57;5.47;;;3.50;;
4517;SDS011;2271;49.464;11.070;2023-07-29T03:06:23;3.33;;;3.03;;
4517;SDS011;2271;49.464;11.070;2023-07-29T03:08:49;4.18;;;3.08;;
4517;SDS011;2271;49.464;11.070;2023-07-29T03:11:15;3.30;;;2.95;;
4517;SDS011;2271;49.464;11.070;2023-07-29T03:13:41;3.30;;;3.00;;
4517;SDS011;2271;49.464;11.070;2023-07-29T03:16:08;2.90;;;2.60;;
4517;SDS011;2271;49.464;11.070;2023-07-29T03:18:34;4.68;;;3.47;;
4517;SDS011;2271;49.464;11.070;2023-07-29T03:21:01;2.70;;;2.50;;
4517;SDS011;2271;49.464;11.070;2023-07-29T03:23:27;5.43;;;3.47;;
4517;SDS011;2271;49.464;11.070;2023-07-29T03:25:57;4.43;;;3.00;;
4517;SDS011;2271;49.464;11.070;2023-07-29T03:28:27;5.38;;;3.40;;
4517;SDS011;2271;49.464;11.070;2023-07-29T03:30:54;4.93;;;3.15;;
4517;SDS011;2271;49.464;11.070;2023-07-29T03:33:20;3.45;;;3.15;;
4517;SDS011;2271;49.464;11.070;2023-07-29T03:35:46;4.00;;;3.60;;
4517;SDS011;2271;49.464;11.070;2023-07-29T03:38:12;2.75;;;2.47;;
4517;SDS011;2271;49.464;11.070;2023-07-29T03:40:38;3.17;;;2.80;;
4517;SDS011;2271;49.464;11.070;2023-07-29T03:43:04;3.97;;;3.60;;
4517;SDS011;2271;49.464;11.070;2023-07-29T03:45:30;3.83;;;3.22;;
4517;SDS011;2271;49.464;11.070;2023-07-29T03:47:56;3.95;;;3.47;;
4517;SDS011;2271;49.464;11.070;2023-07-29T03:50:22;2.75;;;2.50;;
4517;SDS011;2271;49.464;11.070;2023-07-29T03:52:48;3.42;;;3.13;;
4517;SDS011;2271;49.464;11.070;2023-07-29T03:55:14;3.38;;;3.10;;
4517;SDS011;2271;49.464;11.070;2023-07-29T03:57:39;5.45;;;3.40;;
4517;SDS011;2271;49.464;11.070;2023-07-29T04:00:05;5.50;;;3.35;;
4517;SDS011;2271;49.464;11.070;2023-07-29T04:02:31;3.33;;;2.95;;
4517;SDS011;2271;49.464;11.070;2023-07-29T04:04:57;3.85;;;3.45;;
4517;SDS011;2271;49.464;11.070;2023-07-29T04:07:22;4.18;;;2.95;;
4517;SDS011;2271;49.464;11.070;2023-07-29T04:09:48;4.35;;;2.90;;
4517;SDS011;2271;49.464;11.070;2023-07-29T04:12:14;3.67;;;3.17;;
4517;SDS011;2271;49.464;11.070;2023-07-29T04:14:40;4.30;;;2.90;;
4517;SDS011;2271;49.464;11.070;2023-07-29T04:17:06;7.53;;;3.03;;
4517;SDS011;2271;49.464;11.070;2023-07-29T04:19:32;5.32;;;3.50;;
4517;SDS011;2271;49.464;11.070;2023-07-29T04:21:58;5.15;;;3.42;;
4517;SDS011;2271;49.464;11.070;2023-07-29T04:24:24;4.53;;;3.42;;
4517;SDS011;2271;49.464;11.070;2023-07-29T04:26:50;5.80;;;3.33;;
4517;SDS011;2271;49.464;11.070;2023-07-29T04:29:16;3.45;;;3.15;;
4517;SDS011;2271;49.464;11.070;2023-07-29T04:31:42;3.60;;;2.97;;
4517;SDS011;2271;49.464;11.070;2023-07-29T04:34:07;4.45;;;3.42;;
4517;SDS011;2271;49.464;11.070;2023-07-29T04:36:34;3.28;;;2.88;;
4517;SDS011;2271;49.464;11.070;2023-07-29T04:38:59;4.97;;;2.78;;
4517;SDS011;2271;49.464;11.070;2023-07-29T04:41:25;3.80;;;2.88;;
4517;SDS011;2271;49.464;11.070;2023-07-29T04:43:51;5.95;;;2.90;;
4517;SDS011;2271;49.464;11.070;2023-07-29T04:46:17;4.85;;;2.90;;
4517;SDS011;2271;49.464;11.070;2023-07-29T04:48:43;6.13;;;2.65;;
4517;SDS011;2271;49.464;11.070;2023-07-29T04:51:08;2.70;;;2.10;;
4517;SDS011;2271;49.464;11.070;2023-07-29T04:53:34;2.40;;;2.20;;
4517;SDS011;2271;49.464;11.070;2023-07-29T04:56:01;4.40;;;2.80;;
4517;SDS011;2271;49.464;11.070;2023-07-29T04:58:27;8.85;;;2.47;;
4517;SDS011;2271;49.464;11.070;2023-07-29T05:00:54;3.35;;;2.58;;
4517;SDS011;2271;49.464;11.070;2023-07-29T05:03:23;2.00;;;1.90;;
4517;SDS011;2271;49.464;11.070;2023-07-29T05:05:49;2.90;;;2.70;;
4517;SDS011;2271;49.464;11.070;2023-07-29T05:08:16;6.32;;;2.47;;
4517;SDS011;2271;49.464;11.070;2023-07-29T05:10:42;3.60;;;2.47;;
4517;SDS011;2271;49.464;11.070;2023-07-29T05:13:07;4.25;;;2.58;;
4517;SDS011;2271;49.464;11.070;2023-07-29T05:15:33;2.10;;;1.90;;
4517;SDS011;2271;49.464;11.070;2023-07-29T05:17:58;2.33;;;2.08;;
4517;SDS011;2271;49.464;11.070;2023-07-29T05:20:24;1.98;;;1.70;;
4517;SDS011;2271;49.464;11.070;2023-07-29T05:22:50;3.95;;;2.05;;
4517;SDS011;2271;49.464;11.070;2023-07-29T05:25:15;2.20;;;2.00;;
4517;SDS011;2271;49.464;11.070;2023-07-29T05:27:41;1.67;;;1.52;;
4517;SDS011;2271;49.464;11.070;2023-07-29T05:30:07;2.05;;;1.80;;
4517;SDS011;2271;49.464;11.070;2023-07-29T05:32:33;4.78;;;1.80;;
4517;SDS011;2271;49.464;11.070;2023-07-29T05:34:58;4.20;;;1.95;;
4517;SDS011;2271;49.464;11.070;2023-07-29T05:37:24;2.50;;;1.83;;
4517;SDS011;2271;49.464;11.070;2023-07-29T05:39:49;2.65;;;2.08;;
4517;SDS011;2271;49.464;11.070;2023-07-29T05:42:15;3.20;;;1.70;;
4517;SDS011;2271;49.464;11.070;2023-07-29T05:44:40;3.72;;;1.70;;
4517;SDS011;2271;49.464;11.070;2023-07-29T05:47:06;3.00;;;2.17;;
4517;SDS011;2271;49.464;11.070;2023-07-29T05:49:32;2.28;;;1.85;;
4517;SDS011;2271;49.464;11.070;2023-07-29T05:51:57;2.17;;;1.50;;
4517;SDS011;2271;49.464;11.070;2023-07-29T05:54:23;1.92;;;1.60;;
4517;SDS011;2271;49.464;11.070;2023-07-29T05:56:48;2.53;;;1.88;;
4517;SDS011;2271;49.464;11.070;2023-07-29T05:59:14;2.20;;;1.25;;
4517;SDS011;2271;49.464;11.070;2023-07-29T06:01:40;3.15;;;1.83;;
4517;SDS011;2271;49.464;11.070;2023-07-29T06:04:05;1.80;;;1.60;;
4517;SDS011;2271;49.464;11.070;2023-07-29T06:06:31;1.90;;;1.70;;
4517;SDS011;2271;49.464;11.070;2023-07-29T06:08:56;5.88;;;1.40;;
4517;SDS011;2271;49.464;11.070;2023-07-29T06:11:23;1.65;;;1.17;;
4517;SDS011;2271;49.464;11.070;2023-07-29T06:13:48;6.07;;;2.03;;
4517;SDS011;2271;49.464;11.070;2023-07-29T06:16:14;3.03;;;1.60;;
4517;SDS011;2271;49.464;11.070;2023-07-29T06:18:39;1.65;;;1.55;;
4517;SDS011;2271;49.464;11.070;2023-07-29T06:21:05;1.95;;;1.35;;
4517;SDS011;2271;49.464;11.070;2023-07-29T06:23:33;1.38;;;1.27;;
4517;SDS011;2271;49.464;11.070;2023-07-29T06:25:59;2.42;;;2.08;;
4517;SDS011;2271;49.464;11.070;2023-07-29T06:28:25;3.22;;;1.80;;
4517;SDS011;2271;49.464;11.070;2023-07-29T06:30:51;2.55;;;2.00;;
4517;SDS011;2271;49.464;11.070;2023-07-29T06:33:17;2.35;;;2.15;;
4517;SDS011;2271;49.464;11.070;2023-07-29T06:35:43;2.50;;;1.65;;
4517;SDS011;2271;49.464;11.070;2023-07-29T06:38:09;2.30;;;1.90;;
4517;SDS011;2271;49.464;11.070;2023-07-29T06:40:34;1.92;;;1.83;;
4517;SDS011;2271;49.464;11.070;2023-07-29T06:43:00;2.35;;;1.65;;
4517;SDS011;2271;49.464;11.070;2023-07-29T06:45:26;3.50;;;1.80;;
4517;SDS011;2271;49.464;11.070;2023-07-29T06:47:51;3.30;;;1.80;;
4517;SDS011;2271;49.464;11.070;2023-07-29T06:50:17;2.75;;;2.22;;
4517;SDS011;2271;49.464;11.070;2023-07-29T06:52:43;3.75;;;2.83;;
4517;SDS011;2271;49.464;11.070;2023-07-29T06:55:08;5.70;;;3.15;;
4517;SDS011;2271;49.464;11.070;2023-07-29T06:57:34;4.28;;;2.22;;
4517;SDS011;2271;49.464;11.070;2023-07-29T07:00:00;2.72;;;1.70;;
4517;SDS011;2271;49.464;11.070;2023-07-29T07:02:26;5.05;;;2.60;;
4517;SDS011;2271;49.464;11.070;2023-07-29T07:04:51;4.78;;;1.95;;
4517;SDS011;2271;49.464;11.070;2023-07-29T07:07:17;2.35;;;1.38;;
4517;SDS011;2271;49.464;11.070;2023-07-29T07:09:42;2.35;;;1.85;;
4517;SDS011;2271;49.464;11.070;2023-07-29T07:12:08;1.85;;;1.58;;
4517;SDS011;2271;49.464;11.070;2023-07-29T07:14:34;4.50;;;2.10;;
4517;SDS011;2271;49.464;11.070;2023-07-29T07:16:59;2.50;;;1.58;;
4517;SDS011;2271;49.464;11.070;2023-07-29T07:19:25;3.10;;;1.70;;
4517;SDS011;2271;49.464;11.070;2023-07-29T07:21:50;2.55;;;1.60;;
4517;SDS011;2271;49.464;11.070;2023-07-29T07:24:16;2.92;;;1.60;;
4517;SDS011;2271;49.464;11.070;2023-07-29T07:26:42;3.30;;;1.40;;
4517;SDS011;2271;49.464;11.070;2023-07-29T07:29:07;5.47;;;2.08;;
4517;SDS011;2271;49.464;11.070;2023-07-29T07:31:33;4.88;;;1.58;;
4517;SDS011;2271;49.464;11.070;2023-07-29T07:34:00;2.00;;;1.45;;
4517;SDS011;2271;49.464;11.070;2023-07-29T07:36:27;4.72;;;1.88;;
4517;SDS011;2271;49.464;11.070;2023-07-29T07:38:52;4.63;;;1.95;;
4517;SDS011;2271;49.464;11.070;2023-07-29T07:41:18;5.38;;;2.10;;
4517;SDS011;2271;49.464;11.070;2023-07-29T07:43:43;5.32;;;2.30;;
4517;SDS011;2271;49.464;11.070;2023-07-29T07:46:09;6.70;;;2.33;;
4517;SDS011;2271;49.464;11.070;2023-07-29T07:48:35;4.15;;;2.53;;
4517;SDS011;2271;49.464;11.070;2023-07-29T07:51:04;7.68;;;2.33;;
4517;SDS011;2271;49.464;11.070;2023-07-29T07:53:38;5.57;;;2.47;;
4517;SDS011;2271;49.464;11.070;2023-07-29T07:56:04;4.07;;;2.47;;
4517;SDS011;2271;49.464;11.070;2023-07-29T07:58:29;3.95;;;2.33;;
4517;SDS011;2271;49.464;11.070;2023-07-29T08:01:02;3.22;;;2.65;;
4517;SDS011;2271;49.464;11.070;2023-07-29T08:03:32;6.35;;;3.08;;
4517;SDS011;2271;49.464;11.070;2023-07-29T08:05:58;7.93;;;3.00;;
4517;SDS011;2271;49.464;11.070;2023-07-29T08:08:25;7.53;;;2.97;;
4517;SDS011;2271;49.464;11.070;2023-07-29T08:10:52;4.55;;;4.03;;
4517;SDS011;2271;49.464;11.070;2023-07-29T08:13:19;3.85;;;3.05;;
4517;SDS011;2271;49.464;11.070;2023-07-29T08:15:48;5.97;;;4.05;;
4517;SDS011;2271;49.464;11.070;2023-07-29T08:18:14;5.43;;;2.75;;
4517;SDS011;2271;49.464;11.070;2023-07-29T08:20:41;5.47;;;3.17;;
4517;SDS011;2271;49.464;11.070;2023-07-29T08:23:16;4.18;;;3.25;;
4517;SDS011;2271;49.464;11.070;2023-07-29T08:25:41;5.82;;;3.13;;
4517;SDS011;2271;49.464;11.070;2023-07-29T08:28:07;3.33;;;2.95;;
4517;SDS011;2271;49.464;11.070;2023-07-29T08:30:32;6.15;;;3.53;;
4517;SDS011;2271;49.464;11.070;2023-07-29T08:32:58;8.82;;;4.28;;
4517;SDS011;2271;49.464;11.070;2023-07-29T08:35:24;4.60;;;3.92;;
4517;SDS011;2271;49.464;11.070;2023-07-29T08:37:49;8.00;;;3.65;;
4517;SDS011;2271;49.464;11.070;2023-07-29T08:40:15;6.57;;;4.53;;
4517;SDS011;2271;49.464;11.070;2023-07-29T08:42:40;10.63;;;3.78;;
4517;SDS011;2271;49.464;11.070;2023-07-29T08:45:10;4.75;;;3.42;;
4517;SDS011;2271;49.464;11.070;2023-07-29T08:47:36;8.52;;;3.67;;
4517;SDS011;2271;49.464;11.070;2023-07-29T08:50:02;6.68;;;3.10;;
4517;SDS011;2271;49.464;11.070;2023-07-29T08:52:29;3.80;;;2.92;;
4517;SDS011;2271;49.464;11.070;2023-07-29T08:54:57;6.50;;;2.97;;
4517;SDS011;2271;49.464;11.070;2023-07-29T08:57:23;3.15;;;2.17;;
4517;SDS011;2271;49.464;11.070;2023-07-29T08:59:49;4.75;;;1.73;;
4517;SDS011;2271;49.464;11.070;2023-07-29T09:02:15;2.67;;;1.58;;
4517;SDS011;2271;49.464;11.070;2023-07-29T09:04:40;2.35;;;1.02;;
4517;SDS011;2271;49.464;11.070;2023-07-29T09:07:06;2.42;;;2.00;;
4517;SDS011;2271;49.464;11.070;2023-07-29T09:09:33;1.67;;;1.42;;
4517;SDS011;2271;49.464;11.070;2023-07-29T09:11:58;2.25;;;1.50;;
4517;SDS011;2271;49.464;11.070;2023-07-29T09:14:24;2.75;;;1.60;;
4517;SDS011;2271;49.464;11.070;2023-07-29T09:16:49;2.13;;;1.92;;
4517;SDS011;2271;49.464;11.070;2023-07-29T09:19:16;2.88;;;1.70;;
4517;SDS011;2271;49.464;11.070;2023-07-29T09:21:42;1.95;;;1.75;;
4517;SDS011;2271;49.464;11.070;2023-07-29T09:24:07;2.50;;;1.55;;
4517;SDS011;2271;49.464;11.070;2023-07-29T09:26:34;2.10;;;1.80;;
4517;SDS011;2271;49.464;11.070;2023-07-29T09:28:59;2.10;;;1.85;;
4517;SDS011;2271;49.464;11.070;2023-07-29T09:31:26;3.08;;;1.85;;
4517;SDS011;2271;49.464;11.070;2023-07-29T09:34:00;2.88;;;2.50;;
4517;SDS011;2271;49.464;11.070;2023-07-29T09:36:29;2.88;;;2.35;;
4517;SDS011;2271;49.464;11.070;2023-07-29T09:38:56;2.58;;;1.80;;
4517;SDS011;2271;49.464;11.070;2023-07-29T09:41:25;3.13;;;1.70;;
4517;SDS011;2271;49.464;11.070;2023-07-29T09:43:58;2.30;;;1.70;;
4517;SDS011;2271;49.464;11.070;2023-07-29T09:46:35;2.97;;;1.90;;
4517;SDS011;2271;49.464;11.070;2023-07-29T09:49:02;4.00;;;2.05;;
4517;SDS011;2271;49.464;11.070;2023-07-29T09:51:29;2.03;;;1.83;;
4517;SDS011;2271;49.464;11.070;2023-07-29T09:53:55;2.97;;;2.30;;
4517;SDS011;2271;49.464;11.070;2023-07-29T09:56:26;2.95;;;2.30;;
4517;SDS011;2271;49.464;11.070;2023-07-29T09:58:52;2.53;;;2.22;;
4517;SDS011;2271;49.464;11.070;2023-07-29T10:01:20;3.13;;;2.38;;
4517;SDS011;2271;49.464;11.070;2023-07-29T10:03:46;4.60;;;4.18;;
4517;SDS011;2271;49.464;11.070;2023-07-29T10:06:13;6.28;;;3.45;;
4517;SDS011;2271;49.464;11.070;2023-07-29T10:08:40;4.85;;;3.42;;
4517;SDS011;2271;49.464;11.070;2023-07-29T10:11:07;4.13;;;3.20;;
4517;SDS011;2271;49.464;11.070;2023-07-29T10:13:34;3.05;;;2.75;;
4517;SDS011;2271;49.464;11.070;2023-07-29T10:16:00;3.38;;;3.03;;
4517;SDS011;2271;49.464;11.070;2023-07-29T10:18:32;6.45;;;3.35;;
4517;SDS011;2271;49.464;11.070;2023-07-29T10:20:59;4.50;;;3.58;;
4517;SDS011;2271;49.464;11.070;2023-07-29T10:23:26;5.00;;;3.53;;
4517;SDS011;2271;49.464;11.070;2023-07-29T10:26:03;4.20;;;3.28;;
4517;SDS011;2271;49.464;11.070;2023-07-29T10:28:30;5.50;;;2.67;;
4517;SDS011;2271;49.464;11.070;2023-07-29T10:30:57;4.00;;;2.90;;
4517;SDS011;2271;49.464;11.070;2023-07-29T10:33:23;5.95;;;3.40;;
4517;SDS011;2271;49.464;11.070;2023-07-29T10:35:50;3.55;;;2.92;;
4517;SDS011;2271;49.464;11.070;2023-07-29T10:38:17;3.90;;;2.67;;
4517;SDS011;2271;49.464;11.070;2023-07-29T10:40:48;4.28;;;3.08;;
4517;SDS011;2271;49.464;11.070;2023-07-29T10:43:25;3.55;;;2.80;;
4517;SDS011;2271;49.464;11.070;2023-07-29T10:45:52;4.85;;;2.40;;
4517;SDS011;2271;49.464;11.070;2023-07-29T10:53:52;2.17;;;1.98;;
4517;SDS011;2271;49.464;11.070;2023-07-29T11:01:41;2.20;;;2.00;;
4517;SDS011;2271;49.464;11.070;2023-07-29T11:12:33;2.05;;;1.80;;
4517;SDS011;2271;49.464;11.070;2023-07-29T11:17:35;2.53;;;1.52;;
4517;SDS011;2271;49.464;11.070;2023-07-29T11:20:03;1.98;;;1.35;;
4517;SDS011;2271;49.464;11.070;2023-07-29T11:22:30;1.40;;;1.15;;
4517;SDS011;2271;49.464;11.070;2023-07-29T11:24:56;2.85;;;1.70;;
4517;SDS011;2271;49.464;11.070;2023-07-29T11:27:21;1.45;;;1.15;;
4517;SDS011;2271;49.464;11.070;2023-07-29T11:29:47;4.47;;;1.48;;
4517;SDS011;2271;49.464;11.070;2023-07-29T11:32:13;1.77;;;1.35;;
4517;SDS011;2271;49.464;11.070;2023-07-29T11:34:40;1.50;;;1.40;;
4517;SDS011;2271;49.464;11.070;2023-07-29T11:37:08;2.33;;;1.27;;
4517;SDS011;2271;49.464;11.070;2023-07-29T11:39:42;1.77;;;1.35;;
4517;SDS011;2271;49.464;11.070;2023-07-29T11:42:12;4.30;;;1.08;;
4517;SDS011;2271;49.464;11.070;2023-07-29T11:44:39;2.92;;;1.30;;
4517;SDS011;2271;49.464;11.070;2023-07-29T11:47:08;2.22;;;1.27;;
4517;SDS011;2271;49.464;11.070;2023-07-29T11:49:34;1.60;;;1.38;;
4517;SDS011;2271;49.464;11.070;2023-07-29T11:52:01;3.00;;;1.38;;
4517;SDS011;2271;49.464;11.070;2023-07-29T11:54:28;2.35;;;1.50;;
4517;SDS011;2271;49.464;11.070;2023-07-29T11:56:54;5.97;;;2.03;;
4517;SDS011;2271;49.464;11.070;2023-07-29T11:59:20;2.00;;;1.40;;
4517;SDS011;2271;49.464;11.070;2023-07-29T12:01:46;2.20;;;1.63;;
4517;SDS011;2271;49.464;11.070;2023-07-29T12:04:12;1.42;;;1.33;;
4517;SDS011;2271;49.464;11.070;2023-07-29T12:06:39;1.52;;;1.42;;
4517;SDS011;2271;49.464;11.070;2023-07-29T12:09:05;2.05;;;1.30;;
4517;SDS011;2271;49.464;11.070;2023-07-29T12:11:31;5.15;;;1.67;;
4517;SDS011;2271;49.464;11.070;2023-07-29T12:13:59;2.85;;;1.27;;
4517;SDS011;2271;49.464;11.070;2023-07-29T12:16:25;2.22;;;1.42;;
4517;SDS011;2271;49.464;11.070;2023-07-29T12:18:50;1.48;;;1.38;;
4517;SDS011;2271;49.464;11.070;2023-07-29T12:21:17;3.30;;;1.17;;
4517;SDS011;2271;49.464;11.070;2023-07-29T12:23:44;2.22;;;1.40;;
4517;SDS011;2271;49.464;11.070;2023-07-29T12:26:09;2.92;;;1.35;;
4517;SDS011;2271;49.464;11.070;2023-07-29T12:28:35;7.97;;;1.20;;
4517;SDS011;2271;49.464;11.070;2023-07-29T12:31:01;1.88;;;1.40;;
4517;SDS011;2271;49.464;11.070;2023-07-29T12:33:34;1.40;;;1.30;;
4517;SDS011;2271;49.464;11.070;2023-07-29T12:36:01;1.17;;;1.10;;
4517;SDS011;2271;49.464;11.070;2023-07-29T12:38:27;1.70;;;1.13;;
4517;SDS011;2271;49.464;11.070;2023-07-29T12:40:56;2.28;;;1.17;;
4517;SDS011;2271;49.464;11.070;2023-07-29T12:43:21;3.17;;;1.30;;
4517;SDS011;2271;49.464;11.070;2023-07-29T12:45:50;3.03;;;1.33;;
4517;SDS011;2271;49.464;11.070;2023-07-29T12:48:16;3.25;;;1.10;;
4517;SDS011;2271;49.464;11.070;2023-07-29T12:50:41;1.95;;;1.60;;
4517;SDS011;2271;49.464;11.070;2023-07-29T12:53:08;2.05;;;1.50;;
4517;SDS011;2271;49.464;11.070;2023-07-29T12:55:37;0.95;;;0.95;;
4517;SDS011;2271;49.464;11.070;2023-07-29T12:58:03;1.33;;;1.23;;
4517;SDS011;2271;49.464;11.070;2023-07-29T13:00:29;1.67;;;1.27;;
4517;SDS011;2271;49.464;11.070;2023-07-29T13:02:55;1.52;;;1.35;;
4517;SDS011;2271;49.464;11.070;2023-07-29T13:05:21;1.52;;;1.10;;
4517;SDS011;2271;49.464;11.070;2023-07-29T13:07:46;1.45;;;1.02;;
4517;SDS011;2271;49.464;11.070;2023-07-29T13:10:12;4.97;;;1.50;;
4517;SDS011;2271;49.464;11.070;2023-07-29T13:12:39;2.47;;;1.13;;
4517;SDS011;2271;49.464;11.070;2023-07-29T13:15:05;1.65;;;1.10;;
4517;SDS011;2271;49.464;11.070;2023-07-29T13:17:31;1.17;;;1.08;;
4517;SDS011;2271;49.464;11.070;2023-07-29T13:19:57;1.27;;;0.98;;
4517;SDS011;2271;49.464;11.070;2023-07-29T13:22:23;1.38;;;1.00;;
4517;SDS011;2271;49.464;11.070;2023-07-29T13:24:48;1.38;;;1.27;;
4517;SDS011;2271;49.464;11.070;2023-07-29T13:27:14;1.23;;;1.10;;
4517;SDS011;2271;49.464;11.070;2023-07-29T13:29:39;1.73;;;0.85;;
4517;SDS011;2271;49.464;11.070;2023-07-29T13:32:06;1.48;;;1.17;;
4517;SDS011;2271;49.464;11.070;2023-07-29T13:34:32;4.53;;;1.17;;
4517;SDS011;2271;49.464;11.070;2023-07-29T13:36:59;1.15;;;1.05;;
4517;SDS011;2271;49.464;11.070;2023-07-29T13:39:25;1.10;;;1.00;;
4517;SDS011;2271;49.464;11.070;2023-07-29T13:41:50;0.93;;;0.68;;
4517;SDS011;2271;49.464;11.070;2023-07-29T13:44:16;1.25;;;0.88;;
4517;SDS011;2271;49.464;11.070;2023-07-29T13:46:41;3.17;;;1.20;;
4517;SDS011;2271;49.464;11.070;2023-07-29T13:49:07;1.50;;;1.10;;
4517;SDS011;2271;49.464;11.070;2023-07-29T13:51:32;1.77;;;1.30;;
4517;SDS011;2271;49.464;11.070;2023-07-29T13:53:58;1.42;;;1.10;;
4517;SDS011;2271;49.464;11.070;2023-07-29T13:56:24;3.15;;;1.55;;
4517;SDS011;2271;49.464;11.070;2023-07-29T13:58:49;1.13;;;1.02;;
4517;SDS011;2271;49.464;11.070;2023-07-29T14:01:15;1.95;;;0.98;;
4517;SDS011;2271;49.464;11.070;2023-07-29T14:03:41;1.05;;;0.95;;
4517;SDS011;2271;49.464;11.070;2023-07-29T14:06:06;1.30;;;0.73;;
4517;SDS011;2271;49.464;11.070;2023-07-29T14:08:32;1.00;;;0.90;;
4517;SDS011;2271;49.464;11.070;2023-07-29T14:10:57;2.72;;;1.00;;
4517;SDS011;2271;49.464;11.070;2023-07-29T14:13:23;2.00;;;0.93;;
4517;SDS011;2271;49.464;11.070;2023-07-29T14:15:49;0.90;;;0.90;;
4517;SDS011;2271;49.464;11.070;2023-07-29T14:18:14;1.27;;;1.17;;
4517;SDS011;2271;49.464;11.070;2023-07-29T14:20:40;1.85;;;0.80;;
4517;SDS011;2271;49.464;11.070;2023-07-29T14:23:06;1.10;;;1.00;;
4517;SDS011;2271;49.464;11.070;2023-07-29T14:25:31;1.23;;;0.95;;
4517;SDS011;2271;49.464;11.070;2023-07-29T14:27:57;1.70;;;1.00;;
4517;SDS011;2271;49.464;11.070;2023-07-29T14:30:22;0.98;;;0.93;;
4517;SDS011;2271;49.464;11.070;2023-07-29T14:32:48;0.93;;;0.90;;
4517;SDS011;2271;49.464;11.070;2023-07-29T14:35:14;0.70;;;0.70;;
4517;SDS011;2271;49.464;11.070;2023-07-29T14:37:40;6.10;;;0.95;;
4517;SDS011;2271;49.464;11.070;2023-07-29T14:40:05;1.17;;;1.00;;
4517;SDS011;2271;49.464;11.070;2023-07-29T14:42:32;1.20;;;1.10;;
4517;SDS011;2271;49.464;11.070;2023-07-29T14:44:57;0.90;;;0.63;;
4517;SDS011;2271;49.464;11.070;2023-07-29T14:47:23;1.20;;;0.90;;
4517;SDS011;2271;49.464;11.070;2023-07-29T14:49:49;1.27;;;0.88;;
4517;SDS011;2271;49.464;11.070;2023-07-29T14:52:14;1.00;;;0.90;;
4517;SDS011;2271;49.464;11.070;2023-07-29T14:54:40;1.33;;;0.88;;
4517;SDS011;2271;49.464;11.070;2023-07-29T14:57:06;1.17;;;0.80;;
4517;SDS011;2271;49.464;11.070;2023-07-29T14:59:32;1.17;;;1.10;;
4517;SDS011;2271;49.464;11.070;2023-07-29T15:01:58;0.95;;;0.80;;
4517;SDS011;2271;49.464;11.070;2023-07-29T15:04:24;1.00;;;0.80;;
4517;SDS011;2271;49.464;11.070;2023-07-29T15:06:49;1.08;;;0.98;;
4517;SDS011;2271;49.464;11.070;2023-07-29T15:09:15;0.90;;;0.68;;
4517;SDS011;2271;49.464;11.070;2023-07-29T15:11:41;1.00;;;0.88;;
4517;SDS011;2271;49.464;11.070;2023-07-29T15:14:06;1.42;;;1.00;;
4517;SDS011;2271;49.464;11.070;2023-07-29T15:16:32;1.10;;;0.77;;
4517;SDS011;2271;49.464;11.070;2023-07-29T15:19:02;2.13;;;0.88;;
4517;SDS011;2271;49.464;11.070;2023-07-29T15:21:29;0.82;;;0.77;;
4517;SDS011;2271;49.464;11.070;2023-07-29T15:23:55;1.67;;;0.80;;
4517;SDS011;2271;49.464;11.070;2023-07-29T15:26:20;1.42;;;0.93;;